sensor_id;sensor_type;location;lat;lon;timestamp;temperature;humidity
20442;DHT22;10380;52.102;20.614;2023-05-01T00:00:01;6.50;99.90
20442;DHT22;10380;52.102;20.614;2023-05-01T00:02:30;6.50;99.90
20442;DHT22;10380;52.102;20.614;2023-05-01T00:04:57;6.40;99.90
20442;DHT22;10380;52.102;20.614;2023-05-01T00:07:24;6.50;99.90
20442;DHT22;10380;52.102;20.614;2023-05-01T00:09:51;6.40;99.90
20442;DHT22;10380;52.102;20.614;2023-05-01T00:12:17;6.40;99.90
20442;DHT22;10380;52.102;20.614;2023-05-01T00:14:44;6.40;99.90
20442;DHT22;10380;52.102;20.614;2023-05-01T00:17:11;6.40;99.90
20442;DHT22;10380;52.102;20.614;2023-05-01T00:19:38;6.40;99.90
20442;DHT22;10380;52.102;20.614;2023-05-01T00:22:05;6.30;99.90
20442;DHT22;10380;52.102;20.614;2023-05-01T00:24:32;6.30;99.90
20442;DHT22;10380;52.102;20.614;2023-05-01T00:26:59;6.30;99.90
20442;DHT22;10380;52.102;20.614;2023-05-01T00:29:25;6.30;99.90
20442;DHT22;10380;52.102;20.614;2023-05-01T00:31:53;6.20;99.90
20442;DHT22;10380;52.102;20.614;2023-05-01T00:34:20;6.20;99.90
20442;DHT22;10380;52.102;20.614;2023-05-01T00:36:47;6.20;99.90
20442;DHT22;10380;52.102;20.614;2023-05-01T00:39:15;6.20;99.90
20442;DHT22;10380;52.102;20.614;2023-05-01T00:41:43;6.20;99.90
20442;DHT22;10380;52.102;20.614;2023-05-01T00:44:10;6.10;99.90
20442;DHT22;10380;52.102;20.614;2023-05-01T00:46:37;6.10;99.90
20442;DHT22;10380;52.102;20.614;2023-05-01T00:49:04;6.10;99.90
20442;DHT22;10380;52.102;20.614;2023-05-01T00:51:31;6.00;99.90
20442;DHT22;10380;52.102;20.614;2023-05-01T00:53:59;5.90;99.90
20442;DHT22;10380;52.102;20.614;2023-05-01T00:56:26;5.80;99.90
20442;DHT22;10380;52.102;20.614;2023-05-01T00:58:53;5.70;99.90
20442;DHT22;10380;52.102;20.614;2023-05-01T01:01:21;5.60;99.90
20442;DHT22;10380;52.102;20.614;2023-05-01T01:03:48;5.60;99.90
20442;DHT22;10380;52.102;20.614;2023-05-01T01:09:27;5.60;99.90
20442;DHT22;10380;52.102;20.614;2023-05-01T01:12:13;5.50;99.90
20442;DHT22;10380;52.102;20.614;2023-05-01T01:17:51;5.50;99.90
20442;DHT22;10380;52.102;20.614;2023-05-01T01:20:37;5.40;99.90
20442;DHT22;10380;52.102;20.614;2023-05-01T01:26:18;5.30;99.90
20442;DHT22;10380;52.102;20.614;2023-05-01T01:29:55;5.20;99.90
20442;DHT22;10380;52.102;20.614;2023-05-01T01:34:31;5.00;99.90
20442;DHT22;10380;52.102;20.614;2023-05-01T01:37:11;4.90;99.90
20442;DHT22;10380;52.102;20.614;2023-05-01T01:42:10;4.80;99.90
20442;DHT22;10380;52.102;20.614;2023-05-01T01:44:53;4.80;99.90
20442;DHT22;10380;52.102;20.614;2023-05-01T01:47:24;4.70;99.90
20442;DHT22;10380;52.102;20.614;2023-05-01T01:49:54;4.70;99.90
20442;DHT22;10380;52.102;20.614;2023-05-01T01:52:23;4.60;99.90
20442;DHT22;10380;52.102;20.614;2023-05-01T01:54:53;4.60;99.90
20442;DHT22;10380;52.102;20.614;2023-05-01T01:57:21;4.60;99.90
20442;DHT22;10380;52.102;20.614;2023-05-01T01:59:50;4.50;99.90
20442;DHT22;10380;52.102;20.614;2023-05-01T02:02:18;4.50;99.90
20442;DHT22;10380;52.102;20.614;2023-05-01T02:04:48;4.50;99.90
20442;DHT22;10380;52.102;20.614;2023-05-01T02:07:16;4.40;99.90
20442;DHT22;10380;52.102;20.614;2023-05-01T02:09:45;4.40;99.90
20442;DHT22;10380;52.102;20.614;2023-05-01T02:12:13;4.30;99.90
20442;DHT22;10380;52.102;20.614;2023-05-01T02:14:44;4.30;99.90
20442;DHT22;10380;52.102;20.614;2023-05-01T02:17:12;4.30;99.90
20442;DHT22;10380;52.102;20.614;2023-05-01T02:19:42;4.30;99.90
20442;DHT22;10380;52.102;20.614;2023-05-01T02:22:10;4.30;99.90
20442;DHT22;10380;52.102;20.614;2023-05-01T02:24:38;4.20;99.90
20442;DHT22;10380;52.102;20.614;2023-05-01T02:27:14;4.20;99.90
20442;DHT22;10380;52.102;20.614;2023-05-01T02:29:42;4.20;99.90
20442;DHT22;10380;52.102;20.614;2023-05-01T02:32:09;4.20;99.90
20442;DHT22;10380;52.102;20.614;2023-05-01T02:34:36;4.20;99.90
20442;DHT22;10380;52.102;20.614;2023-05-01T02:37:04;4.10;99.90
20442;DHT22;10380;52.102;20.614;2023-05-01T02:39:31;4.10;99.90
20442;DHT22;10380;52.102;20.614;2023-05-01T02:41:59;4.00;99.90
20442;DHT22;10380;52.102;20.614;2023-05-01T02:44:34;4.00;99.90
20442;DHT22;10380;52.102;20.614;2023-05-01T02:47:05;3.90;99.90
20442;DHT22;10380;52.102;20.614;2023-05-01T02:49:34;3.90;99.90
20442;DHT22;10380;52.102;20.614;2023-05-01T02:52:01;3.90;99.90
20442;DHT22;10380;52.102;20.614;2023-05-01T02:54:30;3.80;99.90
20442;DHT22;10380;52.102;20.614;2023-05-01T02:56:57;3.80;99.90
20442;DHT22;10380;52.102;20.614;2023-05-01T02:59:25;3.80;99.90
20442;DHT22;10380;52.102;20.614;2023-05-01T03:01:51;3.80;99.90
20442;DHT22;10380;52.102;20.614;2023-05-01T03:04:18;3.70;99.90
20442;DHT22;10380;52.102;20.614;2023-05-01T03:06:45;3.70;99.90
20442;DHT22;10380;52.102;20.614;2023-05-01T03:09:12;3.70;99.90
20442;DHT22;10380;52.102;20.614;2023-05-01T03:11:39;3.70;99.90
20442;DHT22;10380;52.102;20.614;2023-05-01T03:14:06;3.70;99.90
20442;DHT22;10380;52.102;20.614;2023-05-01T03:16:33;3.70;99.90
20442;DHT22;10380;52.102;20.614;2023-05-01T03:18:59;3.70;99.90
20442;DHT22;10380;52.102;20.614;2023-05-01T03:21:26;3.60;99.90
20442;DHT22;10380;52.102;20.614;2023-05-01T03:23:53;3.60;99.90
20442;DHT22;10380;52.102;20.614;2023-05-01T03:26:20;3.60;99.90
20442;DHT22;10380;52.102;20.614;2023-05-01T03:28:46;3.60;99.90
20442;DHT22;10380;52.102;20.614;2023-05-01T03:31:13;3.60;99.90
20442;DHT22;10380;52.102;20.614;2023-05-01T03:33:40;3.60;99.90
20442;DHT22;10380;52.102;20.614;2023-05-01T03:36:07;3.60;99.90
20442;DHT22;10380;52.102;20.614;2023-05-01T03:38:37;3.60;99.90
20442;DHT22;10380;52.102;20.614;2023-05-01T03:41:04;3.60;99.90
20442;DHT22;10380;52.102;20.614;2023-05-01T03:43:31;3.60;99.90
20442;DHT22;10380;52.102;20.614;2023-05-01T03:45:58;3.60;99.90
20442;DHT22;10380;52.102;20.614;2023-05-01T03:48:25;3.60;99.90
20442;DHT22;10380;52.102;20.614;2023-05-01T03:50:52;3.60;99.90
20442;DHT22;10380;52.102;20.614;2023-05-01T03:53:19;3.60;99.90
20442;DHT22;10380;52.102;20.614;2023-05-01T03:55:45;3.70;99.90
20442;DHT22;10380;52.102;20.614;2023-05-01T03:58:12;3.70;99.90
20442;DHT22;10380;52.102;20.614;2023-05-01T04:00:39;3.80;99.90
20442;DHT22;10380;52.102;20.614;2023-05-01T04:03:07;3.90;99.90
20442;DHT22;10380;52.102;20.614;2023-05-01T04:05:34;3.90;99.90
20442;DHT22;10380;52.102;20.614;2023-05-01T04:08:01;4.00;99.90
20442;DHT22;10380;52.102;20.614;2023-05-01T04:10:28;4.10;99.90
20442;DHT22;10380;52.102;20.614;2023-05-01T04:12:55;4.20;99.90
20442;DHT22;10380;52.102;20.614;2023-05-01T04:15:21;4.40;99.90
20442;DHT22;10380;52.102;20.614;2023-05-01T04:17:48;4.50;99.90
20442;DHT22;10380;52.102;20.614;2023-05-01T04:20:15;4.60;99.90
20442;DHT22;10380;52.102;20.614;2023-05-01T04:22:42;4.70;99.90
20442;DHT22;10380;52.102;20.614;2023-05-01T04:25:09;4.80;99.90
20442;DHT22;10380;52.102;20.614;2023-05-01T04:27:36;4.90;99.90
20442;DHT22;10380;52.102;20.614;2023-05-01T04:30:03;4.90;99.90
20442;DHT22;10380;52.102;20.614;2023-05-01T04:32:30;5.10;99.90
20442;DHT22;10380;52.102;20.614;2023-05-01T04:34:56;5.10;99.90
20442;DHT22;10380;52.102;20.614;2023-05-01T04:37:23;5.20;99.90
20442;DHT22;10380;52.102;20.614;2023-05-01T04:39:50;5.30;99.90
20442;DHT22;10380;52.102;20.614;2023-05-01T04:42:17;5.40;99.90
20442;DHT22;10380;52.102;20.614;2023-05-01T04:44:44;5.50;99.90
20442;DHT22;10380;52.102;20.614;2023-05-01T04:47:11;5.60;99.90
20442;DHT22;10380;52.102;20.614;2023-05-01T04:49:38;5.70;99.90
20442;DHT22;10380;52.102;20.614;2023-05-01T04:52:05;5.80;99.90
20442;DHT22;10380;52.102;20.614;2023-05-01T04:54:32;5.90;99.90
20442;DHT22;10380;52.102;20.614;2023-05-01T04:56:58;6.00;99.90
20442;DHT22;10380;52.102;20.614;2023-05-01T04:59:25;6.10;99.90
20442;DHT22;10380;52.102;20.614;2023-05-01T05:01:52;6.30;99.90
20442;DHT22;10380;52.102;20.614;2023-05-01T05:04:19;6.40;99.90
20442;DHT22;10380;52.102;20.614;2023-05-01T05:06:45;6.50;99.90
20442;DHT22;10380;52.102;20.614;2023-05-01T05:09:13;6.60;99.90
20442;DHT22;10380;52.102;20.614;2023-05-01T05:11:40;6.70;99.90
20442;DHT22;10380;52.102;20.614;2023-05-01T05:14:06;6.80;99.90
20442;DHT22;10380;52.102;20.614;2023-05-01T05:16:33;6.90;99.90
20442;DHT22;10380;52.102;20.614;2023-05-01T05:19:00;7.00;99.90
20442;DHT22;10380;52.102;20.614;2023-05-01T05:21:27;7.10;99.90
20442;DHT22;10380;52.102;20.614;2023-05-01T05:23:54;7.20;99.90
20442;DHT22;10380;52.102;20.614;2023-05-01T05:26:21;7.40;99.90
20442;DHT22;10380;52.102;20.614;2023-05-01T05:28:49;7.50;99.90
20442;DHT22;10380;52.102;20.614;2023-05-01T05:31:16;7.60;99.90
20442;DHT22;10380;52.102;20.614;2023-05-01T05:33:43;7.70;99.90
20442;DHT22;10380;52.102;20.614;2023-05-01T05:36:10;7.80;99.90
20442;DHT22;10380;52.102;20.614;2023-05-01T05:38:37;7.90;99.90
20442;DHT22;10380;52.102;20.614;2023-05-01T05:41:04;8.00;99.90
20442;DHT22;10380;52.102;20.614;2023-05-01T05:43:30;8.10;99.90
20442;DHT22;10380;52.102;20.614;2023-05-01T05:45:59;8.30;99.90
20442;DHT22;10380;52.102;20.614;2023-05-01T05:48:26;8.40;99.90
20442;DHT22;10380;52.102;20.614;2023-05-01T05:50:53;8.50;99.90
20442;DHT22;10380;52.102;20.614;2023-05-01T05:53:20;8.60;99.90
20442;DHT22;10380;52.102;20.614;2023-05-01T05:55:50;8.70;99.90
20442;DHT22;10380;52.102;20.614;2023-05-01T05:58:17;8.80;99.90
20442;DHT22;10380;52.102;20.614;2023-05-01T06:00:49;8.90;99.90
20442;DHT22;10380;52.102;20.614;2023-05-01T06:03:16;9.10;99.90
20442;DHT22;10380;52.102;20.614;2023-05-01T06:05:43;9.20;99.90
20442;DHT22;10380;52.102;20.614;2023-05-01T06:08:11;9.30;99.90
20442;DHT22;10380;52.102;20.614;2023-05-01T06:10:42;9.40;99.90
20442;DHT22;10380;52.102;20.614;2023-05-01T06:13:09;9.60;99.90
20442;DHT22;10380;52.102;20.614;2023-05-01T06:15:40;9.70;99.90
20442;DHT22;10380;52.102;20.614;2023-05-01T06:18:07;9.80;99.90
20442;DHT22;10380;52.102;20.614;2023-05-01T06:20:34;9.80;99.90
20442;DHT22;10380;52.102;20.614;2023-05-01T06:23:01;9.90;99.90
20442;DHT22;10380;52.102;20.614;2023-05-01T06:25:28;10.00;99.90
20442;DHT22;10380;52.102;20.614;2023-05-01T06:27:55;10.10;99.90
20442;DHT22;10380;52.102;20.614;2023-05-01T06:30:22;10.10;99.90
20442;DHT22;10380;52.102;20.614;2023-05-01T06:32:49;10.20;99.90
20442;DHT22;10380;52.102;20.614;2023-05-01T06:35:16;10.20;99.90
20442;DHT22;10380;52.102;20.614;2023-05-01T06:37:42;10.30;99.90
20442;DHT22;10380;52.102;20.614;2023-05-01T06:40:09;10.40;99.90
20442;DHT22;10380;52.102;20.614;2023-05-01T06:42:37;10.50;99.90
20442;DHT22;10380;52.102;20.614;2023-05-01T06:45:07;10.50;99.90
20442;DHT22;10380;52.102;20.614;2023-05-01T06:47:34;10.60;99.90
20442;DHT22;10380;52.102;20.614;2023-05-01T06:50:02;10.70;99.90
20442;DHT22;10380;52.102;20.614;2023-05-01T06:52:31;10.70;99.90
20442;DHT22;10380;52.102;20.614;2023-05-01T06:54:58;10.80;99.90
20442;DHT22;10380;52.102;20.614;2023-05-01T06:57:25;10.90;99.90
20442;DHT22;10380;52.102;20.614;2023-05-01T06:59:52;11.00;99.90
20442;DHT22;10380;52.102;20.614;2023-05-01T07:02:19;11.10;99.90
20442;DHT22;10380;52.102;20.614;2023-05-01T07:04:46;11.10;99.90
20442;DHT22;10380;52.102;20.614;2023-05-01T07:07:13;11.20;99.90
20442;DHT22;10380;52.102;20.614;2023-05-01T07:09:40;11.10;99.90
20442;DHT22;10380;52.102;20.614;2023-05-01T07:12:07;11.20;99.90
20442;DHT22;10380;52.102;20.614;2023-05-01T07:14:34;11.20;99.90
20442;DHT22;10380;52.102;20.614;2023-05-01T07:17:02;11.30;99.90
20442;DHT22;10380;52.102;20.614;2023-05-01T07:19:29;11.40;99.90
20442;DHT22;10380;52.102;20.614;2023-05-01T07:21:56;11.50;99.90
20442;DHT22;10380;52.102;20.614;2023-05-01T07:24:22;11.60;99.90
20442;DHT22;10380;52.102;20.614;2023-05-01T07:26:49;11.70;99.90
20442;DHT22;10380;52.102;20.614;2023-05-01T07:29:17;11.80;99.90
20442;DHT22;10380;52.102;20.614;2023-05-01T07:31:45;11.80;99.90
20442;DHT22;10380;52.102;20.614;2023-05-01T07:34:11;11.90;99.90
20442;DHT22;10380;52.102;20.614;2023-05-01T07:36:39;12.00;99.90
20442;DHT22;10380;52.102;20.614;2023-05-01T07:39:07;12.10;99.90
20442;DHT22;10380;52.102;20.614;2023-05-01T07:41:33;12.20;99.90
20442;DHT22;10380;52.102;20.614;2023-05-01T07:44:01;12.20;99.90
20442;DHT22;10380;52.102;20.614;2023-05-01T07:46:27;12.30;99.90
20442;DHT22;10380;52.102;20.614;2023-05-01T07:48:55;12.30;99.90
20442;DHT22;10380;52.102;20.614;2023-05-01T07:51:22;12.40;99.90
20442;DHT22;10380;52.102;20.614;2023-05-01T07:53:49;12.40;99.90
20442;DHT22;10380;52.102;20.614;2023-05-01T07:56:16;12.50;99.90
20442;DHT22;10380;52.102;20.614;2023-05-01T07:58:43;12.60;99.90
20442;DHT22;10380;52.102;20.614;2023-05-01T08:01:10;12.70;99.90
20442;DHT22;10380;52.102;20.614;2023-05-01T08:03:36;12.80;99.90
20442;DHT22;10380;52.102;20.614;2023-05-01T08:06:04;12.90;99.90
20442;DHT22;10380;52.102;20.614;2023-05-01T08:08:31;13.00;99.90
20442;DHT22;10380;52.102;20.614;2023-05-01T08:10:58;13.10;99.90
20442;DHT22;10380;52.102;20.614;2023-05-01T08:13:25;13.10;99.90
20442;DHT22;10380;52.102;20.614;2023-05-01T08:15:52;13.20;99.90
20442;DHT22;10380;52.102;20.614;2023-05-01T08:18:18;13.20;99.90
20442;DHT22;10380;52.102;20.614;2023-05-01T08:20:47;13.30;99.90
20442;DHT22;10380;52.102;20.614;2023-05-01T08:23:15;13.30;99.90
20442;DHT22;10380;52.102;20.614;2023-05-01T08:25:42;13.40;99.90
20442;DHT22;10380;52.102;20.614;2023-05-01T08:28:13;13.40;99.90
20442;DHT22;10380;52.102;20.614;2023-05-01T08:30:40;13.40;99.90
20442;DHT22;10380;52.102;20.614;2023-05-01T08:33:07;13.40;99.90
20442;DHT22;10380;52.102;20.614;2023-05-01T08:35:34;13.50;99.90
20442;DHT22;10380;52.102;20.614;2023-05-01T08:38:00;13.60;99.90
20442;DHT22;10380;52.102;20.614;2023-05-01T08:40:30;13.60;99.90
20442;DHT22;10380;52.102;20.614;2023-05-01T08:43:00;13.70;99.90
20442;DHT22;10380;52.102;20.614;2023-05-01T08:45:28;13.70;99.90
20442;DHT22;10380;52.102;20.614;2023-05-01T08:47:58;13.70;99.90
20442;DHT22;10380;52.102;20.614;2023-05-01T08:50:27;13.70;99.90
20442;DHT22;10380;52.102;20.614;2023-05-01T08:52:55;13.80;99.90
20442;DHT22;10380;52.102;20.614;2023-05-01T08:55:25;13.90;99.90
20442;DHT22;10380;52.102;20.614;2023-05-01T08:57:53;13.90;99.90
20442;DHT22;10380;52.102;20.614;2023-05-01T09:00:21;13.80;99.90
20442;DHT22;10380;52.102;20.614;2023-05-01T09:02:49;13.80;99.90
20442;DHT22;10380;52.102;20.614;2023-05-01T09:05:18;13.80;99.90
20442;DHT22;10380;52.102;20.614;2023-05-01T09:07:45;13.90;99.90
20442;DHT22;10380;52.102;20.614;2023-05-01T09:10:14;14.00;99.90
20442;DHT22;10380;52.102;20.614;2023-05-01T09:12:41;14.00;99.90
20442;DHT22;10380;52.102;20.614;2023-05-01T09:15:11;14.10;99.90
20442;DHT22;10380;52.102;20.614;2023-05-01T09:17:39;14.10;99.90
20442;DHT22;10380;52.102;20.614;2023-05-01T09:20:06;14.10;99.90
20442;DHT22;10380;52.102;20.614;2023-05-01T09:22:34;14.10;99.90
20442;DHT22;10380;52.102;20.614;2023-05-01T09:25:01;14.10;99.90
20442;DHT22;10380;52.102;20.614;2023-05-01T09:27:32;14.20;99.90
20442;DHT22;10380;52.102;20.614;2023-05-01T09:29:59;14.20;99.90
20442;DHT22;10380;52.102;20.614;2023-05-01T09:32:26;14.20;99.90
20442;DHT22;10380;52.102;20.614;2023-05-01T09:35:13;14.20;99.90
20442;DHT22;10380;52.102;20.614;2023-05-01T09:37:40;14.20;99.90
20442;DHT22;10380;52.102;20.614;2023-05-01T09:40:10;14.30;99.90
20442;DHT22;10380;52.102;20.614;2023-05-01T09:42:39;14.30;99.90
20442;DHT22;10380;52.102;20.614;2023-05-01T09:45:13;14.40;99.90
20442;DHT22;10380;52.102;20.614;2023-05-01T09:47:41;14.40;99.90
20442;DHT22;10380;52.102;20.614;2023-05-01T09:50:29;14.50;99.90
20442;DHT22;10380;52.102;20.614;2023-05-01T09:52:56;14.50;99.90
20442;DHT22;10380;52.102;20.614;2023-05-01T09:55:23;14.50;99.90
20442;DHT22;10380;52.102;20.614;2023-05-01T09:57:51;14.60;99.90
20442;DHT22;10380;52.102;20.614;2023-05-01T10:00:18;14.60;99.90
20442;DHT22;10380;52.102;20.614;2023-05-01T10:02:48;14.60;99.90
20442;DHT22;10380;52.102;20.614;2023-05-01T10:05:16;14.70;99.90
20442;DHT22;10380;52.102;20.614;2023-05-01T10:08:00;14.70;99.90
20442;DHT22;10380;52.102;20.614;2023-05-01T10:10:29;14.80;99.90
20442;DHT22;10380;52.102;20.614;2023-05-01T10:13:17;14.80;99.90
20442;DHT22;10380;52.102;20.614;2023-05-01T10:15:44;14.90;99.90
20442;DHT22;10380;52.102;20.614;2023-05-01T10:18:15;14.90;99.90
20442;DHT22;10380;52.102;20.614;2023-05-01T10:20:42;15.00;99.90
20442;DHT22;10380;52.102;20.614;2023-05-01T10:23:09;15.10;99.80
20442;DHT22;10380;52.102;20.614;2023-05-01T10:25:37;15.10;99.30
20442;DHT22;10380;52.102;20.614;2023-05-01T10:28:05;15.10;99.00
20442;DHT22;10380;52.102;20.614;2023-05-01T10:30:34;15.10;98.40
20442;DHT22;10380;52.102;20.614;2023-05-01T10:33:03;15.10;98.20
20442;DHT22;10380;52.102;20.614;2023-05-01T10:35:34;15.10;98.60
20442;DHT22;10380;52.102;20.614;2023-05-01T10:38:06;15.00;98.70
20442;DHT22;10380;52.102;20.614;2023-05-01T10:45:39;15.10;98.40
20442;DHT22;10380;52.102;20.614;2023-05-01T10:48:05;15.10;97.90
20442;DHT22;10380;52.102;20.614;2023-05-01T10:50:33;15.20;98.40
20442;DHT22;10380;52.102;20.614;2023-05-01T10:55:47;15.30;97.60
20442;DHT22;10380;52.102;20.614;2023-05-01T11:03:54;15.50;97.90
20442;DHT22;10380;52.102;20.614;2023-05-01T11:06:21;15.50;97.80
20442;DHT22;10380;52.102;20.614;2023-05-01T11:08:49;15.60;97.80
20442;DHT22;10380;52.102;20.614;2023-05-01T11:19:43;16.00;96.50
20442;DHT22;10380;52.102;20.614;2023-05-01T11:21:59;16.10;95.80
20442;DHT22;10380;52.102;20.614;2023-05-01T11:24:32;16.20;95.80
20442;DHT22;10380;52.102;20.614;2023-05-01T11:26:59;16.30;95.00
20442;DHT22;10380;52.102;20.614;2023-05-01T11:29:30;16.40;94.90
20442;DHT22;10380;52.102;20.614;2023-05-01T11:32:00;16.60;94.50
20442;DHT22;10380;52.102;20.614;2023-05-01T11:34:27;16.80;94.90
20442;DHT22;10380;52.102;20.614;2023-05-01T11:37:00;17.10;94.70
20442;DHT22;10380;52.102;20.614;2023-05-01T11:39:27;17.30;93.80
20442;DHT22;10380;52.102;20.614;2023-05-01T11:42:07;17.70;93.00
20442;DHT22;10380;52.102;20.614;2023-05-01T11:44:35;18.10;93.50
20442;DHT22;10380;52.102;20.614;2023-05-01T11:47:02;18.50;91.10
20442;DHT22;10380;52.102;20.614;2023-05-01T11:49:29;19.00;91.10
20442;DHT22;10380;52.102;20.614;2023-05-01T11:51:57;19.80;91.00
20442;DHT22;10380;52.102;20.614;2023-05-01T11:54:25;20.90;90.30
20442;DHT22;10380;52.102;20.614;2023-05-01T11:56:59;22.00;87.00
20442;DHT22;10380;52.102;20.614;2023-05-01T11:59:26;23.10;82.10
20442;DHT22;10380;52.102;20.614;2023-05-01T12:01:53;23.90;78.00
20442;DHT22;10380;52.102;20.614;2023-05-01T12:04:25;24.40;75.10
20442;DHT22;10380;52.102;20.614;2023-05-01T12:06:56;25.20;71.80
20442;DHT22;10380;52.102;20.614;2023-05-01T12:09:25;26.00;69.00
20442;DHT22;10380;52.102;20.614;2023-05-01T12:11:56;26.80;66.00
20442;DHT22;10380;52.102;20.614;2023-05-01T12:14:25;27.40;64.50
20442;DHT22;10380;52.102;20.614;2023-05-01T12:16:52;27.90;61.10
20442;DHT22;10380;52.102;20.614;2023-05-01T12:19:19;27.80;58.10
20442;DHT22;10380;52.102;20.614;2023-05-01T12:22:07;27.70;57.80
20442;DHT22;10380;52.102;20.614;2023-05-01T12:24:33;27.60;54.00
20442;DHT22;10380;52.102;20.614;2023-05-01T12:27:00;27.40;54.60
20442;DHT22;10380;52.102;20.614;2023-05-01T12:29:41;27.50;55.00
20442;DHT22;10380;52.102;20.614;2023-05-01T12:32:10;27.60;53.10
20442;DHT22;10380;52.102;20.614;2023-05-01T12:34:37;27.90;53.20
20442;DHT22;10380;52.102;20.614;2023-05-01T12:37:05;28.30;53.80
20442;DHT22;10380;52.102;20.614;2023-05-01T12:39:50;28.80;53.60
20442;DHT22;10380;52.102;20.614;2023-05-01T12:42:17;29.50;53.00
20442;DHT22;10380;52.102;20.614;2023-05-01T12:44:44;30.20;52.40
20442;DHT22;10380;52.102;20.614;2023-05-01T12:47:11;30.60;50.80
20442;DHT22;10380;52.102;20.614;2023-05-01T12:49:38;30.70;50.30
20442;DHT22;10380;52.102;20.614;2023-05-01T12:52:06;30.90;49.60
20442;DHT22;10380;52.102;20.614;2023-05-01T12:54:36;31.10;48.80
20442;DHT22;10380;52.102;20.614;2023-05-01T12:57:14;31.50;48.40
20442;DHT22;10380;52.102;20.614;2023-05-01T12:59:43;32.00;47.20
20442;DHT22;10380;52.102;20.614;2023-05-01T13:02:12;32.50;46.70
20442;DHT22;10380;52.102;20.614;2023-05-01T13:04:45;32.80;45.70
20442;DHT22;10380;52.102;20.614;2023-05-01T13:07:18;33.50;45.10
20442;DHT22;10380;52.102;20.614;2023-05-01T13:09:56;34.00;43.90
20442;DHT22;10380;52.102;20.614;2023-05-01T13:12:25;34.40;42.80
20442;DHT22;10380;52.102;20.614;2023-05-01T13:14:52;34.50;41.80
20442;DHT22;10380;52.102;20.614;2023-05-01T13:17:30;34.40;41.10
20442;DHT22;10380;52.102;20.614;2023-05-01T13:19:59;33.90;41.10
20442;DHT22;10380;52.102;20.614;2023-05-01T13:22:36;33.10;41.40
20442;DHT22;10380;52.102;20.614;2023-05-01T13:25:13;32.40;42.20
20442;DHT22;10380;52.102;20.614;2023-05-01T13:27:40;31.70;42.40
20442;DHT22;10380;52.102;20.614;2023-05-01T13:30:09;31.00;42.40
20442;DHT22;10380;52.102;20.614;2023-05-01T13:32:39;30.90;42.60
20442;DHT22;10380;52.102;20.614;2023-05-01T13:35:07;31.00;43.40
20442;DHT22;10380;52.102;20.614;2023-05-01T13:37:34;31.30;43.80
20442;DHT22;10380;52.102;20.614;2023-05-01T13:40:02;31.90;43.80
20442;DHT22;10380;52.102;20.614;2023-05-01T13:42:29;32.60;43.40
20442;DHT22;10380;52.102;20.614;2023-05-01T13:44:56;33.40;42.80
20442;DHT22;10380;52.102;20.614;2023-05-01T13:47:24;33.90;42.20
20442;DHT22;10380;52.102;20.614;2023-05-01T13:49:54;34.40;42.30
20442;DHT22;10380;52.102;20.614;2023-05-01T13:52:22;34.90;42.70
20442;DHT22;10380;52.102;20.614;2023-05-01T13:54:52;35.40;41.20
20442;DHT22;10380;52.102;20.614;2023-05-01T13:57:21;36.00;41.40
20442;DHT22;10380;52.102;20.614;2023-05-01T13:59:48;36.20;40.70
20442;DHT22;10380;52.102;20.614;2023-05-01T14:02:20;36.30;40.40
20442;DHT22;10380;52.102;20.614;2023-05-01T14:04:50;36.50;40.40
20442;DHT22;10380;52.102;20.614;2023-05-01T14:07:18;36.60;40.30
20442;DHT22;10380;52.102;20.614;2023-05-01T14:09:54;36.60;40.00
20442;DHT22;10380;52.102;20.614;2023-05-01T14:12:30;36.50;39.60
20442;DHT22;10380;52.102;20.614;2023-05-01T14:14:57;36.30;39.40
20442;DHT22;10380;52.102;20.614;2023-05-01T14:17:30;35.80;39.10
20442;DHT22;10380;52.102;20.614;2023-05-01T14:19:57;35.50;38.90
20442;DHT22;10380;52.102;20.614;2023-05-01T14:22:28;35.30;38.80
20442;DHT22;10380;52.102;20.614;2023-05-01T14:24:56;35.10;38.50
20442;DHT22;10380;52.102;20.614;2023-05-01T14:27:24;34.80;38.40
20442;DHT22;10380;52.102;20.614;2023-05-01T14:29:53;34.50;38.60
20442;DHT22;10380;52.102;20.614;2023-05-01T14:32:20;33.80;38.50
20442;DHT22;10380;52.102;20.614;2023-05-01T14:34:47;33.00;39.20
20442;DHT22;10380;52.102;20.614;2023-05-01T14:37:13;32.30;40.10
20442;DHT22;10380;52.102;20.614;2023-05-01T14:39:40;31.80;40.30
20442;DHT22;10380;52.102;20.614;2023-05-01T14:42:07;31.40;40.70
20442;DHT22;10380;52.102;20.614;2023-05-01T14:44:38;31.40;40.70
20442;DHT22;10380;52.102;20.614;2023-05-01T14:47:07;31.10;40.90
20442;DHT22;10380;52.102;20.614;2023-05-01T14:49:35;31.00;40.60
20442;DHT22;10380;52.102;20.614;2023-05-01T14:52:01;30.80;41.50
20442;DHT22;10380;52.102;20.614;2023-05-01T14:54:29;30.50;42.10
20442;DHT22;10380;52.102;20.614;2023-05-01T14:56:57;30.30;42.10
20442;DHT22;10380;52.102;20.614;2023-05-01T14:59:24;30.20;42.30
20442;DHT22;10380;52.102;20.614;2023-05-01T15:01:51;30.10;42.30
20442;DHT22;10380;52.102;20.614;2023-05-01T15:04:18;30.10;42.20
20442;DHT22;10380;52.102;20.614;2023-05-01T15:06:45;30.00;42.40
20442;DHT22;10380;52.102;20.614;2023-05-01T15:09:13;30.00;42.40
20442;DHT22;10380;52.102;20.614;2023-05-01T15:11:40;30.00;42.30
20442;DHT22;10380;52.102;20.614;2023-05-01T15:14:07;30.30;42.20
20442;DHT22;10380;52.102;20.614;2023-05-01T15:16:33;30.60;42.00
20442;DHT22;10380;52.102;20.614;2023-05-01T15:19:01;30.70;41.70
20442;DHT22;10380;52.102;20.614;2023-05-01T15:21:27;31.00;41.40
20442;DHT22;10380;52.102;20.614;2023-05-01T15:23:54;31.20;41.10
20442;DHT22;10380;52.102;20.614;2023-05-01T15:26:21;31.20;41.00
20442;DHT22;10380;52.102;20.614;2023-05-01T15:28:48;31.30;41.00
20442;DHT22;10380;52.102;20.614;2023-05-01T15:31:14;31.40;40.90
20442;DHT22;10380;52.102;20.614;2023-05-01T15:33:41;31.40;40.70
20442;DHT22;10380;52.102;20.614;2023-05-01T15:36:08;31.40;40.60
20442;DHT22;10380;52.102;20.614;2023-05-01T15:38:35;31.30;40.80
20442;DHT22;10380;52.102;20.614;2023-05-01T15:41:02;31.00;40.80
20442;DHT22;10380;52.102;20.614;2023-05-01T15:43:28;30.80;41.00
20442;DHT22;10380;52.102;20.614;2023-05-01T15:45:56;30.70;41.40
20442;DHT22;10380;52.102;20.614;2023-05-01T15:48:24;30.50;41.30
20442;DHT22;10380;52.102;20.614;2023-05-01T15:50:51;30.50;41.40
20442;DHT22;10380;52.102;20.614;2023-05-01T15:53:18;30.50;41.40
20442;DHT22;10380;52.102;20.614;2023-05-01T15:55:46;30.50;41.50
20442;DHT22;10380;52.102;20.614;2023-05-01T15:58:14;30.30;41.60
20442;DHT22;10380;52.102;20.614;2023-05-01T16:00:44;29.90;41.50
20442;DHT22;10380;52.102;20.614;2023-05-01T16:03:12;29.10;42.10
20442;DHT22;10380;52.102;20.614;2023-05-01T16:05:39;28.30;42.90